Time;durP1;ratioP1;P1;durP2;ratioP2;P2;SDS_P1;SDS_P2;PMS_P1;PMS_P2;Temp;Humidity;BMP_temperature;BMP_pressure;BME280_temperature;BME280_humidity;BME280_pressure;Samples;Min_cycle;Max_cycle;Signal;HPM_P1;HPM_P2
2023/08/08 00:01:04;;;;;;;5.90;1.97;;;16.30;95.90;;;;;;4993223;28;20433;-51
2023/08/08 00:03:31;;;;;;;7.30;2.50;;;;;;;;;;4992873;28;20488;-50
2023/08/08 00:05:57;;;;;;;3.80;2.37;;;16.30;96.00;;;;;;4993009;28;20964;-51
2023/08/08 00:08:24;;;;;;;3.03;2.70;;;16.20;96.10;;;;;;4992703;28;20416;-51
2023/08/08 00:10:52;;;;;;;10.10;2.90;;;16.20;96.10;;;;;;4993030;28;20946;-50
2023/08/08 00:13:19;;;;;;;3.90;2.27;;;16.20;96.10;;;;;;4992948;28;20453;-50
2023/08/08 00:15:46;;;;;;;5.03;1.90;;;16.30;96.30;;;;;;4992839;28;20449;-52
2023/08/08 00:18:13;;;;;;;6.33;2.80;;;;;;;;;;4992500;28;20481;-51
2023/08/08 00:20:40;;;;;;;4.10;1.80;;;16.10;96.20;;;;;;4992742;28;20430;-51
2023/08/08 00:23:07;;;;;;;6.70;2.53;;;;;;;;;;4992810;28;20855;-51
2023/08/08 00:25:34;;;;;;;2.90;2.00;;;;;;;;;;4992609;28;20461;-51
2023/08/08 00:28:02;;;;;;;6.13;2.50;;;15.90;96.50;;;;;;4992509;28;20442;-51
2023/08/08 00:30:28;;;;;;;7.70;2.90;;;15.90;96.60;;;;;;4991386;28;20459;-51
2023/08/08 00:32:56;;;;;;;10.73;2.60;;;;;;;;;;4992482;28;20459;-50
2023/08/08 00:35:24;;;;;;;6.57;2.50;;;;;;;;;;4990792;28;20440;-49
2023/08/08 00:37:50;;;;;;;7.10;2.33;;;15.80;96.90;;;;;;4992311;28;20437;-50
2023/08/08 00:40:19;;;;;;;5.13;2.17;;;15.80;96.90;;;;;;4991235;28;20508;-50
2023/08/08 00:42:45;;;;;;;4.43;2.30;;;15.80;97.20;;;;;;4992542;28;20441;-50
2023/08/08 00:45:13;;;;;;;3.60;1.80;;;15.70;97.20;;;;;;4991171;28;20459;-51
2023/08/08 00:47:40;;;;;;;5.47;2.10;;;15.70;97.30;;;;;;4992085;28;20429;-50
2023/08/08 00:50:07;;;;;;;8.00;2.33;;;15.70;97.20;;;;;;4992780;28;21005;-51
2023/08/08 00:52:35;;;;;;;7.40;2.20;;;15.70;97.20;;;;;;4991219;28;20485;-50
2023/08/08 00:55:01;;;;;;;6.00;2.43;;;15.70;97.30;;;;;;4991040;28;20458;-50
2023/08/08 00:57:28;;;;;;;5.13;2.50;;;15.70;97.30;;;;;;4992097;28;20441;-49
2023/08/08 00:59:55;;;;;;;6.80;2.00;;;;;;;;;;4992194;28;20481;-49
2023/08/08 01:02:23;;;;;;;5.73;2.13;;;15.60;97.40;;;;;;4992207;28;20441;-49
2023/08/08 01:04:50;;;;;;;4.27;1.93;;;;;;;;;;4991403;28;20891;-49
2023/08/08 01:07:28;;;;;;;7.60;2.30;;;15.50;97.60;;;;;;4991897;28;20404;-51
2023/08/08 01:10:01;;;;;;;4.07;2.30;;;15.50;97.50;;;;;;4991078;28;20453;-50
2023/08/08 01:12:28;;;;;;;6.90;2.00;;;15.40;97.50;;;;;;4992500;28;20405;-50
2023/08/08 01:14:55;;;;;;;4.00;2.03;;;15.50;97.50;;;;;;4992189;28;20437;-50
2023/08/08 01:17:24;;;;;;;5.40;2.13;;;15.50;97.50;;;;;;4991924;28;20804;-50
2023/08/08 01:19:52;;;;;;;3.03;1.83;;;15.50;97.50;;;;;;4990922;28;20459;-50
2023/08/08 01:22:25;;;;;;;4.87;2.13;;;15.40;97.50;;;;;;4992129;28;20437;-49
2023/08/08 01:24:55;;;;;;;5.00;2.33;;;15.40;97.50;;;;;;4992225;28;20414;-50
2023/08/08 01:27:23;;;;;;;5.67;2.20;;;;;;;;;;4990750;28;20454;-50
2023/08/08 01:29:50;;;;;;;4.13;2.50;;;15.40;97.50;;;;;;4992157;28;20975;-50
2023/08/08 01:32:16;;;;;;;4.70;2.13;;;15.40;97.50;;;;;;4991011;28;20460;-50
2023/08/08 01:34:43;;;;;;;9.23;2.67;;;;;;;;;;4992180;28;20933;-51
2023/08/08 01:37:15;;;;;;;6.53;2.23;;;15.40;97.60;;;;;;4990672;28;20423;-50
2023/08/08 01:39:44;;;;;;;8.67;2.23;;;15.40;97.60;;;;;;4990774;28;20469;-51
2023/08/08 01:42:14;;;;;;;7.20;2.97;;;15.40;97.60;;;;;;4990947;28;20500;-50
2023/08/08 01:44:42;;;;;;;4.93;1.90;;;15.30;97.60;;;;;;4991229;28;20457;-50
2023/08/08 01:47:09;;;;;;;4.27;2.13;;;15.30;97.60;;;;;;4995298;28;20456;-49
2023/08/08 01:49:35;;;;;;;4.97;2.07;;;15.30;97.60;;;;;;4994480;28;20947;-50
2023/08/08 01:52:02;;;;;;;4.50;1.80;;;15.30;97.50;;;;;;4995595;28;20404;-50
2023/08/08 01:54:29;;;;;;;8.13;2.27;;;;;;;;;;4994478;28;20946;-49
2023/08/08 01:56:55;;;;;;;8.47;2.37;;;15.40;97.60;;;;;;4994985;28;20461;-49
2023/08/08 01:59:24;;;;;;;5.30;2.10;;;15.40;97.50;;;;;;4994126;28;20480;-50
2023/08/08 02:01:51;;;;;;;4.83;2.00;;;;;;;;;;4994215;28;20491;-50
2023/08/08 02:04:17;;;;;;;2.90;2.00;;;15.50;97.30;;;;;;4993896;28;20449;-50
2023/08/08 02:06:44;;;;;;;5.03;2.50;;;;;;;;;;4994710;28;20457;-51
2023/08/08 02:09:11;;;;;;;9.73;2.20;;;15.50;97.20;;;;;;4994092;28;20472;-51
2023/08/08 02:11:37;;;;;;;3.43;1.97;;;15.50;97.20;;;;;;4993856;28;20442;-50
2023/08/08 02:14:04;;;;;;;3.43;1.50;;;15.50;97.10;;;;;;4993821;28;20935;-50
2023/08/08 02:16:32;;;;;;;4.30;2.13;;;15.50;97.10;;;;;;4993730;28;20564;-51
2023/08/08 02:18:59;;;;;;;2.83;2.17;;;15.50;97.00;;;;;;4993463;28;20491;-50
2023/08/08 02:21:27;;;;;;;5.20;2.10;;;15.50;96.90;;;;;;4993840;28;20445;-51
2023/08/08 02:23:53;;;;;;;4.13;2.07;;;15.50;96.90;;;;;;4994917;28;20418;-50
2023/08/08 02:26:20;;;;;;;3.17;1.97;;;;;;;;;;4994744;28;20465;-51
2023/08/08 02:28:48;;;;;;;5.70;2.60;;;15.50;96.80;;;;;;4994556;28;20942;-50
2023/08/08 02:31:20;;;;;;;3.20;1.67;;;15.50;96.80;;;;;;4994845;28;20520;-50
2023/08/08 02:33:48;;;;;;;3.40;1.70;;;15.50;96.80;;;;;;4993523;28;20461;-50
2023/08/08 02:36:15;;;;;;;6.57;2.23;;;15.50;96.80;;;;;;4994767;28;20434;-51
2023/08/08 02:38:41;;;;;;;4.27;2.27;;;15.50;96.80;;;;;;4993032;28;20424;-49
2023/08/08 02:41:08;;;;;;;4.43;1.90;;;15.50;96.80;;;;;;4994557;28;20773;-51
2023/08/08 02:43:35;;;;;;;3.07;1.80;;;15.50;96.90;;;;;;4993271;28;21007;-50
2023/08/08 02:46:02;;;;;;;2.87;1.67;;;;;;;;;;4993006;28;20564;-50
2023/08/08 02:48:30;;;;;;;3.20;2.17;;;15.40;97.00;;;;;;4992860;28;20460;-50
2023/08/08 02:50:58;;;;;;;6.50;2.37;;;15.30;97.10;;;;;;4993078;28;20445;-50
2023/08/08 02:53:27;;;;;;;5.40;2.40;;;;;;;;;;4993168;28;20470;-50
2023/08/08 02:55:54;;;;;;;4.63;2.00;;;15.30;97.30;;;;;;4994131;28;20457;-50
2023/08/08 02:58:21;;;;;;;4.80;2.33;;;;;;;;;;4992112;28;20769;-50
2023/08/08 03:00:48;;;;;;;3.63;2.30;;;15.20;97.60;;;;;;4992916;28;20466;-50
2023/08/08 03:03:17;;;;;;;2.53;1.93;;;15.30;97.80;;;;;;4992942;28;20449;-50
2023/08/08 03:05:45;;;;;;;10.83;2.57;;;15.20;98.00;;;;;;4992723;28;20474;-50
2023/08/08 03:08:13;;;;;;;5.90;2.33;;;15.20;98.00;;;;;;4993726;28;20488;-50
2023/08/08 03:10:40;;;;;;;3.30;1.83;;;15.20;98.20;;;;;;4992863;28;20445;-51
2023/08/08 03:13:08;;;;;;;5.40;2.20;;;;;;;;;;4992758;28;20770;-51
2023/08/08 03:15:35;;;;;;;5.00;2.27;;;15.10;98.40;;;;;;4992441;28;20440;-50
2023/08/08 03:18:04;;;;;;;4.70;1.97;;;15.10;98.40;;;;;;4992240;28;20423;-49
2023/08/08 03:20:31;;;;;;;4.87;2.23;;;;;;;;;;4992461;28;20456;-50
2023/08/08 03:22:58;;;;;;;3.50;2.30;;;;;;;;;;4992447;28;20437;-51
2023/08/08 03:25:26;;;;;;;7.70;2.70;;;15.00;98.90;;;;;;4992408;28;20475;-49
2023/08/08 03:27:53;;;;;;;5.70;2.53;;;14.90;99.20;;;;;;4992088;28;20475;-50
2023/08/08 03:30:20;;;;;;;7.40;2.57;;;14.90;99.20;;;;;;4992520;28;20540;-50
2023/08/08 03:32:47;;;;;;;5.30;2.50;;;14.90;99.30;;;;;;4992579;28;20509;-50
2023/08/08 03:35:15;;;;;;;6.70;2.40;;;14.90;99.50;;;;;;4993625;28;20971;-50
2023/08/08 03:37:42;;;;;;;4.60;2.73;;;14.90;99.60;;;;;;4991740;28;20549;-51
2023/08/08 03:40:10;;;;;;;6.07;2.37;;;14.80;99.60;;;;;;4992214;28;20550;-50
2023/08/08 03:42:38;;;;;;;4.67;2.43;;;14.90;99.80;;;;;;4992128;28;20435;-50
2023/08/08 03:45:08;;;;;;;4.23;2.50;;;14.80;99.80;;;;;;4991992;28;20847;-52
2023/08/08 03:47:35;;;;;;;4.30;2.20;;;14.90;99.90;;;;;;4991680;28;20423;-50
2023/08/08 03:50:02;;;;;;;8.00;3.30;;;14.90;99.90;;;;;;4992370;28;20945;-50
2023/08/08 03:52:29;;;;;;;4.80;2.67;;;14.90;99.90;;;;;;4992006;28;20450;-50
2023/08/08 03:54:57;;;;;;;9.73;2.97;;;14.90;99.90;;;;;;4991813;28;20449;-50
2023/08/08 03:57:24;;;;;;;8.73;3.37;;;14.90;99.90;;;;;;4992704;28;20502;-50
2023/08/08 03:59:52;;;;;;;4.20;3.10;;;15.00;99.90;;;;;;4991671;28;20481;-51
2023/08/08 04:02:20;;;;;;;3.87;2.57;;;15.10;99.90;;;;;;4993147;28;20466;-50
2023/08/08 04:04:47;;;;;;;7.03;2.87;;;15.10;99.90;;;;;;4991902;28;20523;-50
2023/08/08 04:07:14;;;;;;;5.03;2.30;;;15.10;99.90;;;;;;4991363;28;20460;-49
2023/08/08 04:09:42;;;;;;;4.13;2.50;;;15.20;99.90;;;;;;4991008;28;20487;-50
2023/08/08 04:12:09;;;;;;;7.03;3.67;;;15.20;99.90;;;;;;4992966;28;20461;-50
2023/08/08 04:14:35;;;;;;;3.73;2.40;;;15.20;99.90;;;;;;4991450;28;20456;-51
2023/08/08 04:17:04;;;;;;;4.73;2.60;;;15.20;99.90;;;;;;4992491;28;20453;-50
2023/08/08 04:19:31;;;;;;;3.87;2.43;;;15.20;99.90;;;;;;4993025;28;20482;-50
2023/08/08 04:21:57;;;;;;;3.27;2.60;;;15.20;99.90;;;;;;4992881;28;20448;-51
2023/08/08 04:24:25;;;;;;;3.30;2.27;;;15.20;99.90;;;;;;4992756;28;20801;-51
2023/08/08 04:26:52;;;;;;;4.40;2.90;;;15.30;99.90;;;;;;4992200;28;20465;-51
2023/08/08 04:29:19;;;;;;;4.80;2.67;;;;;;;;;;4992907;28;20941;-51
2023/08/08 04:31:46;;;;;;;4.30;2.77;;;;;;;;;;4992929;28;20813;-51
2023/08/08 04:34:14;;;;;;;3.93;2.47;;;15.40;99.90;;;;;;4992519;28;20441;-51
2023/08/08 04:36:41;;;;;;;4.20;2.63;;;;;;;;;;4992046;28;20461;-50
2023/08/08 04:39:07;;;;;;;4.40;2.87;;;15.40;99.90;;;;;;4992370;28;20438;-50
2023/08/08 04:41:34;;;;;;;6.40;3.10;;;;;;;;;;4992355;28;20459;-51
2023/08/08 04:44:01;;;;;;;5.00;2.70;;;15.60;99.90;;;;;;4992545;28;20437;-50
2023/08/08 04:46:27;;;;;;;3.43;2.77;;;15.70;99.90;;;;;;4992014;28;20488;-52
2023/08/08 04:48:54;;;;;;;3.73;2.13;;;;;;;;;;4990861;28;20814;-51
2023/08/08 04:51:22;;;;;;;5.00;2.30;;;15.90;99.90;;;;;;4992529;28;20441;-50
2023/08/08 04:53:49;;;;;;;5.03;2.30;;;;;;;;;;4992281;28;20437;-50
2023/08/08 04:56:16;;;;;;;3.90;2.40;;;;;;;;;;4992245;28;20979;-50
2023/08/08 04:58:43;;;;;;;7.40;2.80;;;16.20;99.90;;;;;;4991802;28;20936;-51
2023/08/08 05:01:14;;;;;;;3.57;2.30;;;16.30;99.90;;;;;;4992110;28;20999;-52
2023/08/08 05:03:41;;;;;;;5.10;2.90;;;;;;;;;;4992256;28;20438;-51
2023/08/08 05:06:08;;;;;;;6.30;2.40;;;16.50;99.90;;;;;;4991854;28;21028;-50
2023/08/08 05:08:36;;;;;;;6.40;2.40;;;16.50;99.90;;;;;;4991657;28;20430;-51
2023/08/08 05:11:02;;;;;;;6.43;2.17;;;;;;;;;;4991964;28;20438;-51
2023/08/08 05:13:29;;;;;;;5.97;2.50;;;16.50;99.90;;;;;;4992021;28;20771;-50
2023/08/08 05:15:56;;;;;;;3.70;2.10;;;16.40;99.90;;;;;;4992111;28;20437;-51
2023/08/08 05:18:23;;;;;;;4.63;2.23;;;;;;;;;;4991878;28;20618;-50
2023/08/08 05:20:50;;;;;;;4.73;2.50;;;;;;;;;;4993812;28;20569;-51
2023/08/08 05:23:17;;;;;;;4.07;2.17;;;;;;;;;;4995944;28;20431;-51
2023/08/08 05:25:45;;;;;;;3.87;2.30;;;16.50;99.90;;;;;;4995625;28;20471;-51
2023/08/08 05:28:12;;;;;;;4.23;2.50;;;;;;;;;;4995457;28;20438;-51
2023/08/08 05:30:39;;;;;;;5.87;2.70;;;16.60;99.90;;;;;;4995599;28;20528;-51
2023/08/08 05:33:06;;;;;;;4.23;2.50;;;16.50;99.90;;;;;;4995753;28;20448;-52
2023/08/08 05:35:32;;;;;;;4.10;2.10;;;16.60;99.90;;;;;;4995507;28;20521;-51
2023/08/08 05:37:59;;;;;;;6.20;3.70;;;;;;;;;;4995542;28;20933;-51
2023/08/08 05:40:26;;;;;;;5.00;2.47;;;16.80;99.90;;;;;;4995309;28;20477;-51
2023/08/08 05:42:54;;;;;;;3.90;2.60;;;17.00;99.90;;;;;;4994131;28;20504;-51
2023/08/08 05:45:21;;;;;;;5.97;2.60;;;17.20;99.90;;;;;;4995366;28;21255;-51
2023/08/08 05:47:48;;;;;;;6.27;2.57;;;;;;;;;;4994845;28;20414;-52
2023/08/08 05:50:15;;;;;;;3.77;2.17;;;;;;;;;;4995373;28;20534;-49
2023/08/08 05:52:42;;;;;;;5.93;2.73;;;;;;;;;;4995339;28;20909;-50
2023/08/08 05:55:09;;;;;;;3.97;2.60;;;17.80;99.00;;;;;;4993661;28;20462;-50
2023/08/08 05:57:37;;;;;;;3.50;2.30;;;;;;;;;;4995084;28;20499;-51
2023/08/08 06:00:08;;;;;;;9.23;2.20;;;17.90;98.60;;;;;;4995629;28;20829;-51
2023/08/08 06:02:39;;;;;;;5.20;2.70;;;;;;;;;;4995156;28;20883;-50
2023/08/08 06:05:07;;;;;;;3.90;1.80;;;17.70;98.50;;;;;;4994617;28;20456;-51
2023/08/08 06:07:34;;;;;;;4.27;2.00;;;;;;;;;;4993450;28;20423;-51
2023/08/08 06:10:01;;;;;;;5.13;2.07;;;17.70;98.60;;;;;;4994677;28;20441;-50
2023/08/08 06:12:27;;;;;;;3.27;2.87;;;17.70;98.70;;;;;;4994621;28;20432;-49
2023/08/08 06:14:54;;;;;;;7.23;2.63;;;17.80;98.70;;;;;;4994692;28;20447;-50
2023/08/08 06:17:23;;;;;;;7.43;3.03;;;17.80;98.50;;;;;;4994329;28;20444;-50
2023/08/08 06:19:50;;;;;;;4.27;2.20;;;;;;;;;;4994582;28;20514;-50
2023/08/08 06:22:17;;;;;;;4.30;3.00;;;17.90;98.40;;;;;;4995057;28;20435;-51
2023/08/08 06:24:44;;;;;;;5.60;2.37;;;17.90;98.40;;;;;;4994335;28;20456;-51
2023/08/08 06:27:11;;;;;;;4.00;2.33;;;;;;;;;;4994304;28;20815;-50
2023/08/08 06:29:38;;;;;;;3.83;2.53;;;;;;;;;;4994519;28;20838;-51
2023/08/08 06:32:05;;;;;;;3.80;2.63;;;18.10;98.50;;;;;;4993357;28;20451;-51
2023/08/08 06:34:33;;;;;;;6.73;2.93;;;18.20;98.20;;;;;;4994333;28;20441;-51
2023/08/08 06:37:00;;;;;;;5.30;2.70;;;;;;;;;;4993947;28;20464;-51
2023/08/08 06:39:27;;;;;;;3.93;2.10;;;;;;;;;;4993968;28;20453;-52
2023/08/08 06:41:53;;;;;;;6.40;2.70;;;18.30;98.20;;;;;;4994446;28;20496;-50
2023/08/08 06:44:33;;;;;;;5.17;2.73;;;18.40;98.10;;;;;;4992809;28;20507;-51
2023/08/08 06:47:00;;;;;;;5.37;2.70;;;18.40;98.00;;;;;;4993638;28;20472;-51
2023/08/08 06:49:27;;;;;;;4.97;2.80;;;;;;;;;;4994195;28;20892;-52
2023/08/08 06:51:55;;;;;;;10.30;2.90;;;18.30;98.00;;;;;;4994291;28;20826;-51
2023/08/08 06:54:22;;;;;;;6.90;3.17;;;18.30;98.00;;;;;;4994000;28;20483;-50
2023/08/08 06:56:49;;;;;;;10.50;2.83;;;;;;;;;;4993681;28;20464;-51
2023/08/08 06:59:15;;;;;;;6.23;3.37;;;18.30;98.10;;;;;;4993887;28;20444;-51
2023/08/08 07:01:42;;;;;;;3.70;2.73;;;;;;;;;;4993959;28;20488;-52
2023/08/08 07:04:09;;;;;;;5.60;2.77;;;;;;;;;;4994029;28;20444;-51
2023/08/08 07:06:36;;;;;;;8.40;2.50;;;;;;;;;;4993421;28;20476;-51
2023/08/08 07:09:04;;;;;;;6.10;2.50;;;18.60;98.00;;;;;;4993922;28;20448;-51
2023/08/08 07:11:31;;;;;;;6.50;2.57;;;18.70;98.00;;;;;;4993697;28;20571;-52
2023/08/08 07:13:57;;;;;;;6.83;2.20;;;18.70;97.90;;;;;;4993912;28;20429;-52
2023/08/08 07:16:24;;;;;;;5.20;3.13;;;18.80;97.90;;;;;;4993680;28;20540;-51
2023/08/08 07:18:51;;;;;;;4.60;2.87;;;;;;;;;;4993068;28;20433;-51
2023/08/08 07:21:18;;;;;;;6.13;2.30;;;;;;;;;;4993313;28;20485;-51
2023/08/08 07:23:45;;;;;;;6.27;2.80;;;;;;;;;;4993220;28;20935;-51
2023/08/08 07:26:13;;;;;;;2.47;2.00;;;19.10;97.50;;;;;;4993434;28;20984;-50
2023/08/08 07:28:40;;;;;;;4.37;2.37;;;19.20;97.50;;;;;;4992720;28;20430;-50
2023/08/08 07:31:07;;;;;;;4.00;2.13;;;;;;;;;;4993099;28;20889;-50
2023/08/08 07:33:33;;;;;;;4.07;2.67;;;19.00;97.10;;;;;;4991970;28;20471;-50
2023/08/08 07:36:00;;;;;;;3.60;2.20;;;;;;;;;;4993272;28;20472;-51
2023/08/08 07:38:27;;;;;;;3.93;2.33;;;19.10;97.20;;;;;;4992915;28;20438;-50
2023/08/08 07:40:54;;;;;;;2.83;2.37;;;19.00;97.20;;;;;;4993270;28;20486;-50
2023/08/08 07:43:22;;;;;;;4.27;2.17;;;19.00;97.30;;;;;;4992969;28;20513;-50
2023/08/08 07:45:48;;;;;;;6.10;3.00;;;;;;;;;;4991380;28;20477;-50
2023/08/08 07:48:15;;;;;;;4.97;2.90;;;;;;;;;;4992310;28;20430;-50
2023/08/08 07:50:42;;;;;;;10.63;2.53;;;19.40;96.90;;;;;;4992931;28;20448;-50
2023/08/08 07:53:09;;;;;;;3.00;2.60;;;;;;;;;;4993551;28;20849;-51
2023/08/08 07:55:36;;;;;;;5.20;2.60;;;19.60;96.60;;;;;;4992977;28;20461;-50
2023/08/08 07:58:03;;;;;;;3.30;2.40;;;;;;;;;;4992876;28;20412;-50
2023/08/08 08:00:30;;;;;;;6.73;2.43;;;19.80;96.10;;;;;;4992906;28;20547;-51
2023/08/08 08:02:57;;;;;;;5.90;2.40;;;;;;;;;;4992702;28;20430;-50
2023/08/08 08:05:24;;;;;;;11.83;2.60;;;19.80;96.00;;;;;;4993230;28;20983;-49
2023/08/08 08:07:51;;;;;;;6.00;2.60;;;19.90;95.90;;;;;;4992314;28;20438;-51
2023/08/08 08:10:18;;;;;;;5.37;2.80;;;;;;;;;;4991217;28;20454;-51
2023/08/08 08:12:44;;;;;;;3.93;2.50;;;19.90;95.60;;;;;;4992461;28;20953;-50
2023/08/08 08:15:12;;;;;;;4.70;2.50;;;20.00;95.60;;;;;;4992465;28;21063;-52
2023/08/08 08:17:40;;;;;;;7.83;2.80;;;20.10;95.50;;;;;;4992372;28;20482;-51
2023/08/08 08:20:10;;;;;;;6.10;2.40;;;20.30;95.50;;;;;;4992428;28;20810;-49
2023/08/08 08:22:37;;;;;;;4.27;2.13;;;20.40;95.10;;;;;;4991080;28;20489;-50
2023/08/08 08:25:04;;;;;;;4.47;2.17;;;;;;;;;;4991169;28;20450;-50
2023/08/08 08:27:31;;;;;;;3.37;2.53;;;20.60;94.60;;;;;;4992151;28;20490;-50
2023/08/08 08:29:58;;;;;;;3.17;2.40;;;;;;;;;;4992435;28;20442;-51
2023/08/08 08:32:25;;;;;;;3.20;2.20;;;;;;;;;;4992206;28;20444;-50
2023/08/08 08:34:52;;;;;;;2.70;2.03;;;20.70;94.20;;;;;;4992321;28;20433;-50
2023/08/08 08:37:19;;;;;;;6.27;2.87;;;20.70;94.00;;;;;;4991810;28;20445;-52
2023/08/08 08:39:46;;;;;;;4.53;2.03;;;;;;;;;;4992131;28;20439;-53
2023/08/08 08:42:15;;;;;;;2.70;2.00;;;20.80;93.60;;;;;;4991909;28;20483;-50
2023/08/08 08:44:43;;;;;;;5.13;2.20;;;20.80;93.50;;;;;;4992087;28;20440;-50
2023/08/08 08:47:13;;;;;;;4.30;2.10;;;20.90;93.30;;;;;;4991736;28;20455;-49
2023/08/08 08:49:40;;;;;;;5.03;2.40;;;;;;;;;;4991902;28;20448;-50
2023/08/08 08:52:08;;;;;;;7.53;2.47;;;20.80;93.10;;;;;;4988269;28;20447;-50
2023/08/08 08:54:35;;;;;;;3.90;2.00;;;;;;;;;;5000761;28;20446;-51
2023/08/08 08:57:02;;;;;;;4.63;2.33;;;20.90;93.10;;;;;;5008458;28;20467;-50
2023/08/08 08:59:29;;;;;;;3.77;2.03;;;20.90;93.40;;;;;;4991655;28;20437;-49
2023/08/08 09:01:56;;;;;;;5.50;2.57;;;20.90;93.50;;;;;;4991804;28;20488;-49
2023/08/08 09:04:23;;;;;;;3.13;2.10;;;20.90;93.10;;;;;;4985876;28;20983;-49
2023/08/08 09:06:51;;;;;;;4.80;2.00;;;;;;;;;;4991173;28;20475;-49
2023/08/08 09:09:21;;;;;;;4.57;2.33;;;;;;;;;;4992000;28;20464;-51
2023/08/08 09:11:49;;;;;;;5.43;2.40;;;21.20;93.00;;;;;;4982440;28;20485;-48
2023/08/08 09:14:17;;;;;;;4.63;2.17;;;21.20;92.80;;;;;;4988553;28;21174;-49
2023/08/08 09:16:45;;;;;;;4.93;3.07;;;21.20;92.60;;;;;;4988103;28;20474;-49
2023/08/08 09:19:12;;;;;;;3.47;2.27;;;21.30;92.60;;;;;;4972429;28;20821;-48
2023/08/08 09:21:39;;;;;;;6.30;2.67;;;;;;;;;;4971972;28;20474;-50
2023/08/08 09:24:06;;;;;;;8.73;2.03;;;;;;;;;;4982731;28;20453;-49
2023/08/08 09:26:35;;;;;;;3.60;2.20;;;;;;;;;;4991487;28;20435;-49
2023/08/08 09:29:02;;;;;;;5.70;3.10;;;21.50;92.70;;;;;;4990969;28;20499;-49
2023/08/08 09:31:29;;;;;;;3.40;2.40;;;21.60;92.10;;;;;;4991671;28;20439;-48
2023/08/08 09:33:57;;;;;;;4.47;1.93;;;;;;;;;;4985137;28;20462;-49
2023/08/08 09:36:24;;;;;;;4.27;2.10;;;21.50;91.80;;;;;;4981263;28;20811;-49
2023/08/08 09:38:51;;;;;;;5.13;2.70;;;;;;;;;;4991204;28;20527;-48
2023/08/08 09:41:18;;;;;;;2.90;1.67;;;21.50;91.60;;;;;;4987499;28;20850;-49
2023/08/08 09:43:46;;;;;;;5.20;2.40;;;21.50;91.70;;;;;;4989444;28;20448;-48
2023/08/08 09:46:13;;;;;;;3.43;1.90;;;21.40;91.50;;;;;;4989594;28;20476;-49
2023/08/08 09:48:40;;;;;;;2.83;2.00;;;;;;;;;;4988966;28;20874;-49
2023/08/08 09:51:08;;;;;;;3.37;2.23;;;;;;;;;;4988393;28;20427;-49
2023/08/08 09:53:35;;;;;;;5.10;2.60;;;;;;;;;;4989347;28;20438;-48
2023/08/08 09:56:03;;;;;;;4.53;2.10;;;;;;;;;;4987961;28;20475;-48
2023/08/08 09:58:30;;;;;;;6.70;2.03;;;21.60;90.50;;;;;;4988921;28;20453;-48
2023/08/08 10:00:59;;;;;;;5.30;2.43;;;21.50;90.50;;;;;;4991464;28;20981;-48
2023/08/08 10:03:26;;;;;;;4.53;2.17;;;;;;;;;;4991153;28;20436;-48
2023/08/08 10:05:54;;;;;;;17.13;4.07;;;;;;;;;;4991275;28;20496;-49
2023/08/08 10:08:21;;;;;;;5.67;2.73;;;;;;;;;;4993814;28;20960;-50
2023/08/08 10:10:50;;;;;;;7.60;3.87;;;;;;;;;;4979098;28;20999;-48
2023/08/08 10:13:20;;;;;;;4.37;3.00;;;20.40;96.20;;;;;;4975484;28;20536;-48
2023/08/08 10:15:47;;;;;;;8.33;3.70;;;20.60;98.00;;;;;;4980844;28;20453;-49
2023/08/08 10:18:15;;;;;;;18.83;3.90;;;20.50;98.30;;;;;;4974879;28;20446;-49
2023/08/08 10:20:43;;;;;;;4.53;3.00;;;20.40;99.00;;;;;;4975561;28;20460;-49
2023/08/08 10:23:10;;;;;;;8.40;3.40;;;;;;;;;;4974934;28;20496;-49
2023/08/08 10:25:37;;;;;;;5.70;3.27;;;20.30;99.00;;;;;;4975143;28;20461;-49
2023/08/08 10:28:06;;;;;;;5.43;3.30;;;20.40;99.40;;;;;;4974599;28;20554;-50
2023/08/08 10:30:43;;;;;;;6.27;3.10;;;20.40;99.50;;;;;;4991560;28;20559;-50
2023/08/08 10:33:19;;;;;;;5.60;3.27;;;20.40;99.30;;;;;;4994356;28;20446;-48
2023/08/08 10:36:02;;;;;;;6.77;3.37;;;20.40;99.30;;;;;;4994553;28;20468;-49
2023/08/08 10:38:40;;;;;;;5.43;3.00;;;20.40;99.10;;;;;;4993865;28;20411;-48
2023/08/08 10:41:10;;;;;;;8.73;3.30;;;;;;;;;;4994251;28;20506;-49
2023/08/08 10:43:37;;;;;;;3.77;3.23;;;;;;;;;;4994169;28;20435;-49
2023/08/08 10:46:05;;;;;;;6.13;3.40;;;;;;;;;;4993764;28;20490;-49
2023/08/08 10:48:33;;;;;;;4.53;2.73;;;20.40;99.70;;;;;;4993674;28;20452;-49
2023/08/08 10:51:01;;;;;;;7.00;3.50;;;20.30;98.60;;;;;;4992520;28;20466;-49
2023/08/08 10:53:28;;;;;;;9.40;4.60;;;20.20;98.90;;;;;;4994297;28;20530;-49
2023/08/08 10:55:59;;;;;;;8.73;3.20;;;20.10;99.10;;;;;;4994008;28;20475;-49
2023/08/08 10:58:37;;;;;;;3.73;2.90;;;20.10;99.00;;;;;;4993315;28;20424;-49
2023/08/08 11:01:07;;;;;;;6.67;4.27;;;;;;;;;;4993993;28;20824;-49
2023/08/08 11:03:36;;;;;;;3.80;2.83;;;20.40;98.90;;;;;;4993940;28;20483;-49
2023/08/08 11:06:03;;;;;;;5.03;2.90;;;;;;;;;;4996102;28;21046;-48
2023/08/08 11:08:31;;;;;;;5.40;2.77;;;20.60;98.50;;;;;;4993654;28;20448;-49
2023/08/08 11:10:58;;;;;;;6.53;2.63;;;;;;;;;;4991667;28;20937;-49
2023/08/08 11:13:25;;;;;;;4.33;2.40;;;;;;;;;;4981557;28;21006;-49
2023/08/08 11:15:52;;;;;;;4.57;2.00;;;;;;;;;;4974369;28;20455;-48
2023/08/08 11:18:19;;;;;;;3.33;2.50;;;;;;;;;;4992571;28;20808;-49
2023/08/08 11:20:48;;;;;;;4.10;2.10;;;;;;;;;;4993862;28;20438;-48
2023/08/08 11:23:15;;;;;;;3.70;2.70;;;20.50;96.90;;;;;;4986502;28;20488;-48
2023/08/08 11:25:42;;;;;;;4.87;2.20;;;;;;;;;;4989253;28;20468;-49
2023/08/08 11:28:10;;;;;;;2.40;1.90;;;;;;;;;;4973953;28;20455;-48
2023/08/08 11:30:38;;;;;;;3.53;2.60;;;20.50;96.20;;;;;;4974223;28;20849;-49
2023/08/08 11:33:05;;;;;;;3.70;2.83;;;20.80;96.60;;;;;;4990902;28;20451;-52
2023/08/08 11:35:33;;;;;;;4.87;2.40;;;20.60;96.30;;;;;;4991262;28;20529;-51
2023/08/08 11:38:04;;;;;;;5.07;1.90;;;20.50;96.60;;;;;;4990726;28;20449;-52
2023/08/08 11:40:31;;;;;;;2.23;1.90;;;20.50;96.30;;;;;;4982076;28;20515;-51
2023/08/08 11:42:58;;;;;;;2.77;2.20;;;20.40;95.30;;;;;;4973504;28;20489;-52
2023/08/08 11:45:25;;;;;;;4.00;1.33;;;20.40;94.80;;;;;;4987772;28;20581;-51
2023/08/08 11:47:53;;;;;;;3.03;2.00;;;20.70;94.40;;;;;;4992514;28;20823;-49
2023/08/08 11:50:22;;;;;;;3.70;2.23;;;20.40;94.10;;;;;;4992604;28;20507;-50
2023/08/08 11:52:51;;;;;;;2.93;1.93;;;20.40;93.90;;;;;;4993118;28;20582;-52
2023/08/08 11:55:22;;;;;;;2.50;1.93;;;20.20;93.90;;;;;;4992922;28;20456;-51
2023/08/08 11:57:49;;;;;;;3.50;2.57;;;20.10;94.30;;;;;;4981272;28;20858;-51
2023/08/08 12:00:17;;;;;;;3.47;2.10;;;19.90;94.60;;;;;;5012366;28;20461;-51
2023/08/08 12:02:44;;;;;;;3.30;2.50;;;19.80;94.60;;;;;;5012029;28;20503;-50
2023/08/08 12:05:13;;;;;;;5.63;2.23;;;19.80;95.00;;;;;;4994400;28;20657;-51
2023/08/08 12:07:41;;;;;;;3.73;2.47;;;19.70;95.20;;;;;;4986037;28;20529;-50
2023/08/08 12:10:15;;;;;;;7.43;2.43;;;20.00;95.50;;;;;;4991854;28;20435;-51
2023/08/08 12:12:43;;;;;;;3.30;2.40;;;19.80;95.40;;;;;;4973311;28;20440;-50
2023/08/08 12:15:10;;;;;;;3.67;2.90;;;19.90;95.50;;;;;;4992093;28;20469;-51
2023/08/08 12:17:38;;;;;;;4.03;2.80;;;19.80;95.30;;;;;;4992039;28;20613;-50
2023/08/08 12:20:06;;;;;;;4.40;2.47;;;19.90;95.30;;;;;;4992454;28;20435;-52
2023/08/08 12:22:33;;;;;;;4.53;2.93;;;20.00;95.30;;;;;;4989447;28;20498;-50
2023/08/08 12:25:00;;;;;;;6.43;3.50;;;20.00;95.30;;;;;;4972619;28;20436;-50
2023/08/08 12:27:26;;;;;;;3.40;2.63;;;20.20;95.20;;;;;;4972527;28;20410;-50
2023/08/08 12:29:54;;;;;;;3.93;2.40;;;20.00;95.00;;;;;;4972662;28;20930;-50
2023/08/08 12:32:23;;;;;;;4.03;2.70;;;20.30;94.70;;;;;;4972762;28;21122;-51
2023/08/08 12:34:50;;;;;;;3.30;2.10;;;20.30;94.40;;;;;;5008566;28;20488;-50
2023/08/08 12:37:17;;;;;;;3.90;2.40;;;20.50;94.30;;;;;;5012162;28;20433;-51
2023/08/08 12:39:44;;;;;;;3.00;2.50;;;20.60;94.10;;;;;;5012308;28;20431;-51
2023/08/08 12:42:11;;;;;;;9.50;3.10;;;20.80;93.90;;;;;;5011659;28;20480;-51
2023/08/08 12:44:37;;;;;;;6.10;2.37;;;20.90;93.70;;;;;;5011752;28;20538;-51
2023/08/08 12:47:06;;;;;;;4.83;4.33;;;21.10;93.60;;;;;;5003573;28;20458;-51
2023/08/08 12:49:32;;;;;;;3.90;2.80;;;21.20;93.30;;;;;;4991609;28;20443;-51
2023/08/08 12:51:59;;;;;;;3.53;2.70;;;21.10;92.60;;;;;;4990395;28;20427;-52
2023/08/08 12:54:26;;;;;;;4.10;2.63;;;21.10;92.50;;;;;;4997842;28;20439;-52
2023/08/08 12:56:52;;;;;;;4.77;2.27;;;21.10;92.40;;;;;;5011459;28;20984;-52
2023/08/08 12:59:19;;;;;;;3.90;2.67;;;21.10;92.40;;;;;;5005031;28;20457;-52
2023/08/08 13:01:45;;;;;;;5.67;2.43;;;21.10;92.00;;;;;;4998711;28;20439;-54
2023/08/08 13:04:13;;;;;;;5.50;3.03;;;21.20;92.00;;;;;;5007534;28;20495;-51
2023/08/08 13:06:40;;;;;;;6.33;3.03;;;21.30;92.20;;;;;;4991239;28;20464;-52
2023/08/08 13:09:07;;;;;;;4.60;2.70;;;21.40;92.20;;;;;;4992046;28;20452;-52
2023/08/08 13:11:34;;;;;;;5.47;2.97;;;21.50;92.30;;;;;;4982964;28;20540;-52
2023/08/08 13:14:01;;;;;;;5.33;2.53;;;21.80;92.40;;;;;;4972272;28;20501;-52
2023/08/08 13:16:27;;;;;;;4.20;2.30;;;21.90;91.80;;;;;;4975596;28;20467;-53
2023/08/08 13:18:54;;;;;;;3.70;2.27;;;21.70;91.90;;;;;;4991653;28;20904;-51